Moccasin, California
Current Conditions -  °F | °C
As of 5:35 PM on Thursday 27 Nov 2014 (Local Time) from KO22 Reporting Station
Clear Clear  
Wind Chill: 54°   Ceiling: Unl
Heat Index: 54°   Visibility: 10mi
Dew Point: 48°   Wind: 0mph
Humidity: 82%   Direction: NA
Pressure: 30.1"   Gusts: NA
Location:  37.81°N, 120.3°W
Report Text: KO22 280135Z AUTO 00000KT 10SM CLR 12/09 A3010 RMK AO1
Loading
Personal Weather Stations






























Interactive Weather Map New forecast layout! Learn more

10-Day Weather Forecast

Advertisements
Track Severe Weather on mobile